Time;durP1;ratioP1;P1;durP2;ratioP2;P2;SDS_P1;SDS_P2;PMS_P1;PMS_P2;Temp;Humidity;BMP_temperature;BMP_pressure;BME280_temperature;BME280_humidity;BME280_pressure;Samples;Min_cycle;Max_cycle;Signal;HPM_P1;HPM_P2
2021/04/04 00:00:23;;;;;;;17.97;7.57;;;4.10;99.90;;;;;;5011474;28;20211;-64
2021/04/04 00:02:48;;;;;;;13.27;6.13;;;4.00;99.90;;;;;;5011930;28;20538;-65
2021/04/04 00:05:14;;;;;;;15.83;5.77;;;3.90;99.90;;;;;;5011735;28;20188;-65
2021/04/04 00:07:41;;;;;;;11.87;5.93;;;3.80;99.90;;;;;;5011559;28;20593;-65
2021/04/04 00:10:09;;;;;;;23.63;6.17;;;3.80;99.90;;;;;;5011376;28;20238;-65
2021/04/04 00:12:35;;;;;;;14.10;6.33;;;3.70;99.90;;;;;;5011493;28;20310;-65
2021/04/04 00:15:01;;;;;;;17.00;6.43;;;3.70;99.90;;;;;;5010523;28;20255;-65
2021/04/04 00:17:27;;;;;;;12.50;5.77;;;3.70;99.90;;;;;;5011482;28;20233;-65
2021/04/04 00:19:52;;;;;;;20.23;6.03;;;3.60;99.90;;;;;;5010728;28;20655;-65
2021/04/04 00:22:18;;;;;;;19.70;6.67;;;3.60;99.90;;;;;;5011253;28;20230;-65
2021/04/04 00:24:43;;;;;;;21.83;6.57;;;3.60;99.90;;;;;;5011436;28;20194;-65
2021/04/04 00:27:09;;;;;;;19.27;6.43;;;3.60;99.90;;;;;;5011710;28;20180;-65
2021/04/04 00:29:35;;;;;;;15.90;6.13;;;3.50;99.90;;;;;;5011642;28;20247;-65
2021/04/04 00:32:00;;;;;;;11.50;5.87;;;3.50;99.90;;;;;;5011290;28;20188;-65
2021/04/04 00:34:26;;;;;;;20.40;5.93;;;3.50;99.90;;;;;;5011476;28;20173;-65
2021/04/04 00:36:51;;;;;;;19.90;6.43;;;3.40;99.90;;;;;;5011560;28;20206;-65
2021/04/04 00:39:18;;;;;;;17.60;6.67;;;3.40;99.90;;;;;;5011656;28;20548;-65
2021/04/04 00:41:44;;;;;;;18.40;6.43;;;3.40;99.90;;;;;;5010852;28;20192;-66
2021/04/04 00:44:11;;;;;;;18.30;6.77;;;3.30;99.90;;;;;;5011670;28;20211;-66
2021/04/04 00:46:38;;;;;;;16.13;6.70;;;3.30;99.90;;;;;;5011230;28;20195;-65
2021/04/04 00:49:04;;;;;;;15.73;5.90;;;3.30;99.90;;;;;;5011513;28;20259;-64
2021/04/04 00:51:31;;;;;;;17.10;6.90;;;3.30;99.90;;;;;;5010633;28;20222;-64
2021/04/04 00:53:57;;;;;;;17.47;7.50;;;3.30;99.90;;;;;;5010034;28;20176;-64
2021/04/04 00:56:23;;;;;;;18.27;5.60;;;3.30;99.90;;;;;;5010852;28;20184;-64
2021/04/04 00:58:49;;;;;;;24.07;7.10;;;3.30;99.90;;;;;;5011352;28;20543;-63
2021/04/04 01:01:15;;;;;;;20.80;6.33;;;3.30;99.90;;;;;;5010669;28;20235;-65
2021/04/04 01:03:40;;;;;;;13.23;5.90;;;3.40;99.90;;;;;;5011195;28;20176;-63
2021/04/04 01:06:08;;;;;;;15.00;5.77;;;3.40;99.90;;;;;;5011352;28;20551;-64
2021/04/04 01:08:35;;;;;;;14.00;5.30;;;3.50;99.90;;;;;;5011489;28;20182;-66
2021/04/04 01:11:02;;;;;;;18.20;5.53;;;3.60;99.90;;;;;;5014307;28;20211;-64
2021/04/04 01:13:45;;;;;;;12.13;5.60;;;3.60;99.90;;;;;;5014509;28;20176;-64
2021/04/04 01:16:29;;;;;;;16.70;5.93;;;3.60;99.90;;;;;;5014455;28;20544;-64
2021/04/04 01:19:14;;;;;;;17.53;6.20;;;3.50;99.90;;;;;;5013845;28;20511;-65
2021/04/04 01:21:49;;;;;;;17.57;5.77;;;3.50;99.90;;;;;;5014254;28;20642;-64
2021/04/04 01:24:42;;;;;;;16.80;5.17;;;3.40;99.90;;;;;;4995225;28;20242;-64
2021/04/04 01:27:17;;;;;;;16.90;5.37;;;3.40;99.90;;;;;;5006588;28;20267;-65
2021/04/04 01:29:44;;;;;;;11.80;5.73;;;3.40;99.90;;;;;;5014012;28;20211;-63
2021/04/04 01:32:10;;;;;;;12.67;5.80;;;3.30;99.90;;;;;;5014584;28;20183;-64
2021/04/04 01:34:38;;;;;;;15.23;5.77;;;3.30;99.90;;;;;;5013999;28;20179;-65
2021/04/04 01:37:09;;;;;;;16.37;6.50;;;3.30;99.90;;;;;;5014597;28;20314;-65
2021/04/04 01:39:49;;;;;;;20.73;6.23;;;3.30;99.90;;;;;;5013729;28;20200;-65
2021/04/04 01:42:16;;;;;;;13.77;5.53;;;3.40;99.90;;;;;;5014093;28;20167;-63
2021/04/04 01:44:45;;;;;;;12.47;5.13;;;3.40;99.90;;;;;;5013792;28;20646;-64
2021/04/04 01:47:12;;;;;;;14.40;6.73;;;3.50;99.90;;;;;;5014213;28;20172;-64
2021/04/04 01:49:43;;;;;;;10.07;5.40;;;3.60;99.90;;;;;;5013638;28;20208;-64
2021/04/04 01:52:11;;;;;;;19.57;6.73;;;3.60;99.90;;;;;;5014100;28;20172;-65
2021/04/04 01:54:37;;;;;;;17.10;6.00;;;3.60;99.90;;;;;;5013688;28;20275;-65
2021/04/04 01:57:03;;;;;;;13.13;5.57;;;3.70;99.90;;;;;;5014069;28;20254;-64
2021/04/04 01:59:31;;;;;;;17.37;6.33;;;3.80;99.90;;;;;;5013620;28;20260;-64
2021/04/04 02:01:59;;;;;;;15.10;6.40;;;3.90;99.90;;;;;;5013738;28;20255;-64
2021/04/04 02:04:25;;;;;;;17.13;5.80;;;3.90;99.90;;;;;;5013484;28;20182;-64
2021/04/04 02:06:51;;;;;;;16.50;5.90;;;4.00;99.90;;;;;;5013782;28;20230;-64
2021/04/04 02:09:17;;;;;;;16.00;5.83;;;4.10;99.90;;;;;;5013413;28;20207;-64
2021/04/04 02:11:44;;;;;;;19.47;8.97;;;4.20;99.90;;;;;;5013319;28;20204;-64
2021/04/04 02:14:13;;;;;;;18.13;6.00;;;4.20;99.90;;;;;;5013339;28;20183;-64
2021/04/04 02:16:57;;;;;;;19.47;6.40;;;4.20;99.90;;;;;;5013289;28;20595;-65
2021/04/04 02:19:26;;;;;;;17.13;5.47;;;4.20;99.90;;;;;;5012441;28;20190;-65
2021/04/04 02:21:55;;;;;;;17.07;6.40;;;4.20;99.90;;;;;;5012814;28;20545;-65
2021/04/04 02:24:22;;;;;;;21.90;7.17;;;4.20;99.90;;;;;;5013150;28;20187;-64
2021/04/04 02:26:49;;;;;;;11.80;5.43;;;4.30;99.90;;;;;;5013374;28;20169;-65
2021/04/04 02:29:16;;;;;;;15.00;6.43;;;4.30;99.90;;;;;;5013045;28;20188;-65
2021/04/04 02:31:48;;;;;;;17.47;5.97;;;4.20;99.90;;;;;;5011672;28;20266;-65
2021/04/04 02:34:19;;;;;;;13.03;5.53;;;4.30;99.90;;;;;;5013059;28;20179;-65
2021/04/04 02:36:45;;;;;;;23.03;6.70;;;4.30;99.90;;;;;;5013500;28;20544;-64
2021/04/04 02:39:24;;;;;;;14.17;5.97;;;4.30;99.90;;;;;;5013115;28;20200;-65
2021/04/04 02:41:50;;;;;;;19.00;5.83;;;4.30;99.90;;;;;;5013038;28;20180;-65
2021/04/04 02:44:16;;;;;;;17.47;6.37;;;4.30;99.90;;;;;;5012943;28;20267;-65
2021/04/04 02:46:47;;;;;;;20.77;5.73;;;4.30;99.90;;;;;;5013009;28;20263;-64
2021/04/04 02:49:15;;;;;;;20.00;6.13;;;4.30;99.90;;;;;;5013147;28;20692;-65
2021/04/04 02:51:49;;;;;;;17.20;6.20;;;4.30;99.90;;;;;;5012330;28;20665;-65
2021/04/04 02:54:19;;;;;;;14.37;5.47;;;4.30;99.90;;;;;;5012727;28;20188;-65
2021/04/04 02:56:48;;;;;;;19.90;6.33;;;4.30;99.90;;;;;;5012885;28;20183;-66
2021/04/04 02:59:43;;;;;;;17.97;6.53;;;4.30;99.90;;;;;;5012492;28;20176;-65
2021/04/04 03:02:12;;;;;;;19.17;6.63;;;4.30;99.90;;;;;;5012820;28;20168;-64
2021/04/04 03:04:40;;;;;;;14.43;6.13;;;4.30;99.90;;;;;;5012652;28;20193;-64
2021/04/04 03:07:07;;;;;;;10.30;5.33;;;4.40;99.90;;;;;;5012709;28;20176;-63
2021/04/04 03:14:39;;;;;;;20.40;5.73;;;4.40;99.90;;;;;;4995973;28;20232;-67
2021/04/04 03:17:05;;;;;;;13.07;6.40;;;4.40;99.90;;;;;;4995754;28;20541;-66
2021/04/04 03:19:34;;;;;;;11.40;5.77;;;4.40;99.90;;;;;;4997539;28;20599;-65
2021/04/04 03:22:01;;;;;;;19.17;5.13;;;4.40;99.90;;;;;;4977599;28;20170;-66
2021/04/04 03:24:29;;;;;;;14.53;6.60;;;4.40;99.90;;;;;;4976647;28;20253;-65
2021/04/04 03:26:56;;;;;;;24.90;5.73;;;4.50;99.90;;;;;;4976979;28;20192;-66
2021/04/04 03:29:21;;;;;;;16.93;5.03;;;4.60;99.90;;;;;;4976804;28;20173;-66
2021/04/04 03:31:48;;;;;;;22.17;5.43;;;4.70;99.90;;;;;;4976689;28;20213;-67
2021/04/04 03:34:16;;;;;;;17.60;5.07;;;4.70;99.90;;;;;;4976344;28;20614;-65
2021/04/04 03:36:42;;;;;;;18.07;5.40;;;4.80;99.90;;;;;;4977371;28;20227;-66
2021/04/04 03:39:08;;;;;;;17.97;6.97;;;4.80;99.90;;;;;;4976856;28;20235;-68
2021/04/04 03:41:35;;;;;;;23.30;6.03;;;4.80;99.90;;;;;;4977012;28;20224;-66
2021/04/04 03:44:02;;;;;;;13.57;5.73;;;4.80;99.90;;;;;;4976759;28;20619;-65
2021/04/04 03:46:34;;;;;;;16.27;5.93;;;4.80;99.90;;;;;;4976887;28;20555;-66
2021/04/04 03:49:01;;;;;;;14.60;5.73;;;4.80;99.90;;;;;;4975222;28;20177;-67
2021/04/04 03:51:29;;;;;;;25.10;6.27;;;4.80;99.90;;;;;;4973415;28;20209;-62
2021/04/04 03:53:57;;;;;;;21.43;6.27;;;4.80;99.90;;;;;;4973155;28;20232;-62
2021/04/04 03:56:34;;;;;;;14.93;6.03;;;4.80;99.90;;;;;;4972694;28;20540;-63
2021/04/04 03:59:08;;;;;;;23.03;6.80;;;4.80;99.90;;;;;;4973026;28;20543;-62
2021/04/04 04:01:37;;;;;;;22.60;5.90;;;4.80;99.90;;;;;;4972103;28;20205;-62
2021/04/04 04:04:05;;;;;;;22.03;7.00;;;4.80;99.90;;;;;;4972965;28;20170;-63
2021/04/04 04:06:33;;;;;;;13.73;6.13;;;4.80;99.90;;;;;;4972565;28;20214;-62
2021/04/04 04:09:13;;;;;;;17.67;6.77;;;4.90;99.90;;;;;;4972838;28;20188;-62
2021/04/04 04:11:41;;;;;;;23.93;8.27;;;4.90;99.90;;;;;;4972116;28;20208;-63
2021/04/04 04:14:10;;;;;;;15.57;6.80;;;4.90;99.90;;;;;;4972708;28;20194;-62
2021/04/04 04:16:36;;;;;;;19.83;7.13;;;4.90;99.90;;;;;;4972347;28;20359;-62
2021/04/04 04:19:04;;;;;;;17.93;7.27;;;4.90;99.90;;;;;;4972769;28;20176;-62
2021/04/04 04:21:32;;;;;;;24.03;6.93;;;4.90;99.90;;;;;;4972040;28;20539;-62
2021/04/04 04:24:00;;;;;;;15.00;5.80;;;4.90;99.90;;;;;;4970930;28;20623;-60
2021/04/04 04:26:27;;;;;;;15.73;6.40;;;5.00;99.90;;;;;;4972182;28;20187;-63
2021/04/04 04:28:54;;;;;;;21.13;6.70;;;5.00;99.90;;;;;;4972471;28;20196;-63
2021/04/04 04:31:25;;;;;;;19.90;6.50;;;4.90;99.90;;;;;;4971771;28;20209;-63
2021/04/04 04:33:53;;;;;;;23.30;6.93;;;4.90;99.90;;;;;;4972654;28;20181;-63
2021/04/04 04:36:22;;;;;;;24.53;6.53;;;5.00;99.90;;;;;;4972199;28;20170;-63
2021/04/04 04:38:51;;;;;;;19.53;6.47;;;5.00;99.90;;;;;;4972456;28;20259;-63
2021/04/04 04:41:17;;;;;;;17.23;6.00;;;5.00;99.90;;;;;;4971924;28;20196;-62
2021/04/04 04:43:47;;;;;;;19.17;6.47;;;5.10;99.90;;;;;;4973007;28;20178;-62
2021/04/04 04:46:16;;;;;;;24.47;6.00;;;5.10;99.90;;;;;;4976177;28;20174;-62
2021/04/04 04:48:43;;;;;;;20.33;6.57;;;5.00;99.90;;;;;;4975899;28;20173;-62
2021/04/04 04:51:10;;;;;;;18.13;6.37;;;5.10;99.90;;;;;;4975673;28;20299;-62
2021/04/04 04:53:36;;;;;;;16.47;5.43;;;5.10;99.90;;;;;;4976072;28;20169;-62
2021/04/04 04:56:03;;;;;;;12.93;5.40;;;5.10;99.90;;;;;;4976012;28;20174;-62
2021/04/04 04:58:31;;;;;;;11.87;6.30;;;5.10;99.90;;;;;;4975811;28;20169;-61
2021/04/04 05:00:59;;;;;;;18.90;6.43;;;5.10;99.90;;;;;;4975524;28;20229;-63
2021/04/04 05:03:25;;;;;;;12.40;5.87;;;5.10;99.90;;;;;;4975947;28;20583;-62
2021/04/04 05:05:51;;;;;;;14.50;5.50;;;5.10;99.90;;;;;;4975807;28;20200;-62
2021/04/04 05:08:19;;;;;;;18.67;5.90;;;5.10;99.90;;;;;;4975636;28;20225;-62
2021/04/04 05:10:46;;;;;;;15.13;5.80;;;5.00;99.90;;;;;;4975351;28;20237;-63
2021/04/04 05:13:13;;;;;;;13.67;5.37;;;5.00;99.90;;;;;;4975483;28;20264;-63
2021/04/04 05:15:40;;;;;;;18.17;6.63;;;5.00;99.90;;;;;;4975731;28;20170;-63
2021/04/04 05:18:06;;;;;;;15.63;5.53;;;5.00;99.90;;;;;;4975535;28;20177;-63
2021/04/04 05:20:32;;;;;;;18.73;6.70;;;4.90;99.90;;;;;;4975046;28;20193;-62
2021/04/04 05:22:58;;;;;;;10.20;5.07;;;4.90;99.90;;;;;;4974566;28;20177;-63
2021/04/04 05:25:25;;;;;;;15.50;5.30;;;4.90;99.90;;;;;;4975307;28;20643;-63
2021/04/04 05:27:50;;;;;;;15.40;5.23;;;4.90;99.90;;;;;;4975376;28;20181;-63
2021/04/04 05:30:16;;;;;;;12.43;5.80;;;5.00;99.90;;;;;;4974978;28;20549;-63
2021/04/04 05:32:47;;;;;;;9.37;5.50;;;4.90;99.90;;;;;;4975341;28;20165;-63
2021/04/04 05:35:21;;;;;;;17.60;6.43;;;5.00;99.90;;;;;;4975213;28;20178;-63
2021/04/04 05:37:47;;;;;;;13.90;5.43;;;5.00;99.90;;;;;;4975370;28;20647;-63
2021/04/04 05:40:19;;;;;;;16.63;5.73;;;5.00;99.90;;;;;;4974735;28;20201;-63
2021/04/04 05:42:54;;;;;;;16.83;5.50;;;5.00;99.90;;;;;;4974922;28;20188;-63
2021/04/04 05:45:46;;;;;;;17.77;6.33;;;5.00;99.90;;;;;;4975035;28;20185;-63
2021/04/04 05:48:19;;;;;;;17.30;6.30;;;5.10;99.90;;;;;;4975301;28;20182;-63
2021/04/04 05:51:00;;;;;;;13.37;6.63;;;5.20;99.90;;;;;;4974378;28;20202;-63
2021/04/04 05:53:37;;;;;;;27.40;6.83;;;5.20;99.90;;;;;;4975502;28;20182;-62
2021/04/04 05:56:22;;;;;;;14.30;5.53;;;5.20;99.90;;;;;;4974398;28;20173;-63
2021/04/04 05:58:57;;;;;;;17.90;5.40;;;5.30;99.90;;;;;;4974925;28;20173;-62
2021/04/04 06:01:29;;;;;;;17.67;5.23;;;5.30;99.90;;;;;;4955362;29;20225;-62
2021/04/04 06:04:03;;;;;;;12.93;5.47;;;5.40;99.90;;;;;;4955968;28;20547;-62
2021/04/04 06:06:58;;;;;;;18.97;6.67;;;5.50;99.90;;;;;;4974724;28;20207;-63
2021/04/04 06:09:39;;;;;;;16.03;6.77;;;5.60;99.90;;;;;;4974779;28;20184;-63
2021/04/04 06:12:12;;;;;;;10.63;4.80;;;5.70;99.90;;;;;;4973392;28;20212;-63
2021/04/04 06:15:00;;;;;;;17.00;6.77;;;5.70;99.90;;;;;;4974073;28;20264;-63
2021/04/04 06:17:50;;;;;;;19.97;6.00;;;5.80;99.90;;;;;;4974274;28;20224;-63
2021/04/04 06:20:41;;;;;;;15.30;4.93;;;5.80;99.90;;;;;;4973974;28;20226;-63
2021/04/04 06:23:28;;;;;;;12.27;5.20;;;5.70;99.90;;;;;;4974635;28;20174;-61
2021/04/04 06:25:53;;;;;;;15.77;5.80;;;5.70;99.90;;;;;;4974247;28;20550;-61
2021/04/04 06:28:42;;;;;;;19.17;6.23;;;5.80;99.90;;;;;;4974369;28;20181;-63
2021/04/04 06:31:25;;;;;;;12.77;5.90;;;5.90;99.90;;;;;;4973518;28;20217;-62
2021/04/04 06:34:06;;;;;;;20.80;6.00;;;6.00;99.90;;;;;;4974096;28;20538;-63
2021/04/04 06:36:49;;;;;;;15.03;4.70;;;6.00;99.90;;;;;;4973952;28;20257;-62
2021/04/04 06:39:31;;;;;;;17.07;4.93;;;6.00;99.90;;;;;;4973829;28;20169;-62
2021/04/04 06:42:14;;;;;;;16.83;4.70;;;6.00;99.90;;;;;;4973782;28;20196;-62
2021/04/04 06:45:17;;;;;;;16.17;5.50;;;5.90;99.90;;;;;;4972515;28;20205;-62
2021/04/04 06:48:20;;;;;;;14.47;5.43;;;5.80;99.90;;;;;;4965799;28;20180;-62
2021/04/04 06:51:23;;;;;;;16.93;6.23;;;5.90;99.90;;;;;;4972447;28;20212;-63
2021/04/04 06:54:25;;;;;;;11.43;4.43;;;6.00;99.90;;;;;;4906401;29;20211;-62
2021/04/04 06:57:15;;;;;;;16.20;5.20;;;6.20;99.90;;;;;;4973103;28;20260;-63
2021/04/04 07:00:04;;;;;;;16.73;4.93;;;6.20;99.90;;;;;;4973137;28;20189;-63
2021/04/04 07:02:52;;;;;;;19.20;5.20;;;6.20;99.90;;;;;;4967819;28;20201;-63
2021/04/04 07:05:20;;;;;;;12.07;5.03;;;6.30;99.90;;;;;;4930146;28;20189;-63
2021/04/04 07:07:52;;;;;;;13.73;4.97;;;6.40;99.90;;;;;;4973109;28;20674;-62
2021/04/04 07:10:32;;;;;;;19.03;5.70;;;6.40;99.90;;;;;;4973043;28;20288;-63
2021/04/04 07:13:22;;;;;;;12.30;5.87;;;6.40;99.90;;;;;;4973401;28;20184;-62
2021/04/04 07:16:08;;;;;;;8.43;4.20;;;6.40;99.90;;;;;;4973230;28;20171;-62
2021/04/04 07:19:22;;;;;;;10.60;5.37;;;6.50;99.90;;;;;;4972204;28;20200;-63
2021/04/04 07:22:07;;;;;;;15.93;5.40;;;6.60;99.90;;;;;;4972013;28;20679;-63
2021/04/04 07:24:51;;;;;;;10.73;4.20;;;6.60;99.90;;;;;;4972304;28;20181;-60
2021/04/04 07:27:22;;;;;;;19.00;6.27;;;6.70;99.90;;;;;;4973280;28;20636;-61
2021/04/04 07:30:35;;;;;;;18.00;4.70;;;6.70;99.90;;;;;;4973159;28;20635;-60
2021/04/04 07:33:09;;;;;;;13.33;4.30;;;6.80;99.90;;;;;;4913661;29;20194;-62
2021/04/04 07:35:46;;;;;;;11.10;5.97;;;6.90;99.90;;;;;;4913325;29;20180;-61
2021/04/04 07:38:31;;;;;;;14.73;5.43;;;6.90;99.90;;;;;;4952209;28;20247;-62
2021/04/04 07:41:08;;;;;;;12.60;5.43;;;6.80;99.90;;;;;;4972028;28;20197;-63
2021/04/04 07:43:53;;;;;;;10.33;6.03;;;6.90;99.90;;;;;;4956731;28;20180;-63
2021/04/04 07:46:43;;;;;;;10.07;5.33;;;6.90;99.90;;;;;;4972412;28;20201;-63
2021/04/04 07:49:14;;;;;;;19.27;4.77;;;7.00;99.90;;;;;;4971602;28;20189;-63
2021/04/04 07:51:44;;;;;;;16.03;4.73;;;7.00;99.90;;;;;;4971043;28;20205;-62
2021/04/04 07:54:21;;;;;;;12.30;5.13;;;7.00;99.90;;;;;;4972771;28;20178;-60
2021/04/04 07:56:57;;;;;;;11.37;5.23;;;7.00;99.90;;;;;;4972608;28;20228;-63
2021/04/04 07:59:32;;;;;;;15.17;4.80;;;7.10;99.90;;;;;;4971647;28;20260;-62
2021/04/04 08:02:00;;;;;;;14.27;4.83;;;7.20;99.90;;;;;;4961956;28;20196;-62
2021/04/04 08:04:48;;;;;;;12.83;4.80;;;7.10;99.90;;;;;;4972545;28;20177;-63
2021/04/04 08:07:30;;;;;;;13.90;4.83;;;7.00;99.90;;;;;;4972633;28;20185;-63
2021/04/04 08:10:18;;;;;;;10.97;4.83;;;6.90;99.90;;;;;;4986846;28;20205;-62
2021/04/04 08:13:00;;;;;;;16.53;5.77;;;6.70;99.90;;;;;;4971710;28;20197;-61
2021/04/04 08:15:33;;;;;;;9.63;4.90;;;6.70;99.90;;;;;;4972290;28;20655;-62
2021/04/04 08:18:00;;;;;;;11.60;4.07;;;6.70;99.90;;;;;;4972604;28;20212;-64
2021/04/04 08:20:38;;;;;;;9.80;4.30;;;7.00;99.90;;;;;;4977962;28;20692;-64
2021/04/04 08:23:05;;;;;;;12.80;4.27;;;7.10;99.90;;;;;;4979388;28;20208;-63
2021/04/04 08:25:35;;;;;;;8.80;4.17;;;7.20;99.90;;;;;;4978389;28;20181;-63
2021/04/04 08:28:11;;;;;;;9.17;4.30;;;7.20;99.90;;;;;;4978712;28;20185;-63
2021/04/04 08:30:59;;;;;;;8.87;4.17;;;7.20;99.90;;;;;;4978033;28;20204;-63
2021/04/04 08:33:45;;;;;;;17.93;7.90;;;7.20;99.90;;;;;;4966830;28;20252;-63
2021/04/04 08:36:18;;;;;;;14.70;4.00;;;7.30;99.90;;;;;;4978178;28;20232;-63
2021/04/04 08:38:46;;;;;;;11.03;3.97;;;7.40;99.90;;;;;;4978216;28;20203;-63
2021/04/04 08:41:14;;;;;;;12.23;4.53;;;7.50;99.90;;;;;;4978322;28;20219;-63
2021/04/04 08:43:43;;;;;;;10.77;4.33;;;7.40;99.90;;;;;;4977963;28;20272;-63
2021/04/04 08:46:20;;;;;;;10.50;4.20;;;7.30;99.90;;;;;;4978985;28;20166;-63
2021/04/04 08:48:47;;;;;;;6.77;3.83;;;7.40;99.90;;;;;;4976757;28;20655;-63
2021/04/04 08:51:16;;;;;;;7.20;4.00;;;7.50;99.90;;;;;;4978561;28;20666;-62
2021/04/04 08:53:46;;;;;;;10.80;3.53;;;7.70;99.90;;;;;;4979411;28;20212;-62
2021/04/04 08:56:16;;;;;;;9.03;3.30;;;7.80;99.90;;;;;;4979043;28;20185;-63
2021/04/04 08:58:47;;;;;;;14.37;3.67;;;7.90;99.90;;;;;;4977941;28;20178;-63
2021/04/04 09:01:34;;;;;;;13.57;3.97;;;7.90;99.90;;;;;;4978090;28;20213;-63
2021/04/04 09:04:04;;;;;;;9.30;3.70;;;7.70;99.90;;;;;;4978822;28;20305;-64
2021/04/04 09:06:39;;;;;;;11.87;3.93;;;7.70;99.90;;;;;;4978221;28;20185;-64
2021/04/04 09:09:26;;;;;;;12.23;3.00;;;7.70;99.90;;;;;;4978178;28;20184;-63
2021/04/04 09:11:53;;;;;;;6.27;3.43;;;7.70;99.90;;;;;;4977711;28;20713;-63
2021/04/04 09:14:22;;;;;;;9.70;3.17;;;7.80;99.90;;;;;;5052326;23;20219;-62
2021/04/04 09:17:11;;;;;;;11.03;2.80;;;7.80;99.90;;;;;;5036843;28;20706;-62
2021/04/04 09:19:38;;;;;;;9.47;3.97;;;7.70;99.90;;;;;;5037093;28;20175;-62
2021/04/04 09:22:15;;;;;;;6.70;3.53;;;7.80;99.90;;;;;;5036911;28;20605;-61
2021/04/04 09:24:53;;;;;;;7.23;4.27;;;7.80;99.90;;;;;;5016218;28;20179;-63
2021/04/04 09:27:24;;;;;;;11.33;4.17;;;7.80;99.90;;;;;;5015742;28;20552;-63
2021/04/04 09:29:51;;;;;;;10.43;3.97;;;7.60;99.90;;;;;;5016546;28;20637;-62
2021/04/04 09:32:39;;;;;;;10.90;3.73;;;7.60;99.90;;;;;;5014024;28;20187;-62
2021/04/04 09:35:06;;;;;;;12.00;4.10;;;7.60;99.90;;;;;;5014517;28;20172;-63
2021/04/04 09:37:33;;;;;;;13.70;4.03;;;7.80;99.90;;;;;;5013844;28;20271;-63
2021/04/04 09:39:59;;;;;;;15.20;3.93;;;7.90;99.90;;;;;;5014005;28;20176;-63
2021/04/04 09:42:29;;;;;;;10.27;4.60;;;8.00;99.90;;;;;;5013717;28;20189;-63
2021/04/04 09:45:12;;;;;;;8.20;3.97;;;8.20;99.90;;;;;;5014187;28;20219;-64
2021/04/04 09:47:37;;;;;;;10.63;4.57;;;8.30;99.90;;;;;;5013260;28;20680;-63
2021/04/04 09:50:20;;;;;;;11.63;5.00;;;8.30;99.90;;;;;;5013755;28;20218;-63
2021/04/04 09:52:46;;;;;;;8.73;3.50;;;8.30;99.90;;;;;;5013281;28;20291;-63
2021/04/04 09:55:19;;;;;;;6.97;3.60;;;8.30;99.90;;;;;;5010617;28;20275;-63
2021/04/04 09:57:50;;;;;;;10.70;4.33;;;8.30;99.90;;;;;;5013054;28;20211;-62
2021/04/04 10:00:21;;;;;;;8.00;3.93;;;8.50;99.90;;;;;;5013707;28;20176;-63
2021/04/04 10:02:49;;;;;;;8.67;3.60;;;8.50;99.90;;;;;;5009737;28;20285;-63
2021/04/04 10:05:31;;;;;;;10.43;4.20;;;8.60;99.90;;;;;;5014212;28;20168;-63
2021/04/04 10:08:15;;;;;;;8.07;3.50;;;8.70;99.90;;;;;;5013976;28;20664;-63
2021/04/04 10:10:44;;;;;;;9.37;3.50;;;8.90;99.90;;;;;;5013232;28;20675;-64
2021/04/04 10:13:11;;;;;;;7.37;3.40;;;8.80;99.90;;;;;;5013588;28;20247;-63
2021/04/04 10:15:43;;;;;;;6.77;3.77;;;8.90;99.90;;;;;;5013857;28;20192;-65
2021/04/04 10:18:10;;;;;;;4.90;3.33;;;9.10;99.90;;;;;;5013775;28;20183;-65
2021/04/04 10:20:42;;;;;;;13.17;6.23;;;9.20;99.90;;;;;;5013512;28;20172;-65
2021/04/04 10:23:09;;;;;;;5.27;3.70;;;9.00;99.90;;;;;;5013674;28;20192;-65
2021/04/04 10:25:36;;;;;;;13.23;3.80;;;9.00;99.90;;;;;;5013756;28;20608;-65
2021/04/04 10:28:08;;;;;;;7.23;3.93;;;9.00;99.90;;;;;;5013708;28;20676;-65
2021/04/04 10:30:39;;;;;;;9.80;4.00;;;8.90;99.90;;;;;;5013172;28;20196;-65
2021/04/04 10:33:19;;;;;;;5.47;3.80;;;8.80;99.90;;;;;;5013233;28;20743;-64
2021/04/04 10:35:44;;;;;;;8.87;3.70;;;8.70;99.90;;;;;;5013777;28;20168;-64
2021/04/04 10:38:19;;;;;;;6.57;4.00;;;8.90;99.90;;;;;;5013334;28;20180;-66
2021/04/04 10:40:57;;;;;;;8.47;3.77;;;9.20;99.90;;;;;;5012794;28;20187;-64
2021/04/04 10:43:45;;;;;;;9.90;4.00;;;9.30;99.90;;;;;;5012925;28;20188;-65
2021/04/04 10:46:11;;;;;;;9.70;3.73;;;9.50;99.90;;;;;;5011835;28;20717;-65
2021/04/04 10:48:42;;;;;;;11.00;3.50;;;9.60;99.90;;;;;;5006428;28;20266;-64
2021/04/04 10:51:10;;;;;;;10.90;5.47;;;9.60;99.90;;;;;;5012357;28;20649;-65
2021/04/04 10:53:37;;;;;;;15.03;4.50;;;9.70;99.90;;;;;;5012931;28;20665;-65
2021/04/04 10:56:03;;;;;;;12.37;6.20;;;9.60;99.90;;;;;;5013324;28;20629;-65
2021/04/04 10:58:29;;;;;;;11.47;4.47;;;9.40;99.90;;;;;;5012755;28;20176;-65
2021/04/04 11:00:59;;;;;;;8.60;4.20;;;9.00;99.90;;;;;;5012940;28;20176;-65
2021/04/04 11:03:27;;;;;;;12.27;6.83;;;8.90;99.90;;;;;;5012803;28;20192;-63
2021/04/04 11:05:53;;;;;;;8.53;5.17;;;8.90;99.90;;;;;;5013289;28;20439;-65
2021/04/04 11:08:19;;;;;;;11.93;4.30;;;8.90;99.90;;;;;;5013382;28;20176;-65
2021/04/04 11:10:45;;;;;;;9.27;5.37;;;8.80;99.90;;;;;;5012018;28;20262;-65
2021/04/04 11:13:19;;;;;;;8.13;4.40;;;8.70;99.90;;;;;;5012787;28;20616;-66
2021/04/04 11:15:59;;;;;;;7.67;4.17;;;8.70;99.90;;;;;;5012733;28;20197;-66
2021/04/04 11:18:28;;;;;;;6.17;3.87;;;8.90;99.90;;;;;;5012924;28;20204;-66
2021/04/04 11:20:56;;;;;;;7.47;4.10;;;8.80;99.90;;;;;;5012377;28;20234;-64
2021/04/04 11:23:23;;;;;;;9.37;4.80;;;8.80;99.90;;;;;;5012506;28;20222;-65
2021/04/04 11:25:49;;;;;;;11.00;4.87;;;8.90;99.90;;;;;;5013073;28;20633;-66
2021/04/04 11:28:16;;;;;;;9.20;4.93;;;9.00;99.90;;;;;;5012389;28;20230;-66
2021/04/04 11:30:43;;;;;;;11.87;4.43;;;9.20;99.90;;;;;;5012258;28;20203;-64
2021/04/04 11:33:21;;;;;;;10.13;4.87;;;9.00;99.90;;;;;;5000218;28;20296;-65
2021/04/04 11:36:09;;;;;;;8.63;4.47;;;8.90;99.90;;;;;;4992923;28;20173;-66
2021/04/04 11:39:03;;;;;;;10.07;4.80;;;9.00;99.90;;;;;;5008767;28;20176;-63
2021/04/04 11:41:29;;;;;;;12.47;5.10;;;9.30;99.90;;;;;;5011697;28;20171;-63
2021/04/04 11:44:27;;;;;;;10.83;5.60;;;9.50;99.90;;;;;;5011815;28;20203;-64
2021/04/04 11:47:00;;;;;;;13.67;6.63;;;9.60;99.90;;;;;;5011797;28;20179;-63
2021/04/04 11:49:42;;;;;;;12.50;6.53;;;9.70;99.90;;;;;;5012056;28;20172;-63
2021/04/04 11:52:08;;;;;;;13.00;5.77;;;10.00;99.90;;;;;;5010239;28;20633;-63
2021/04/04 11:54:49;;;;;;;9.73;4.87;;;10.10;99.90;;;;;;5011064;28;20188;-64
2021/04/04 11:57:32;;;;;;;6.90;4.93;;;10.00;99.90;;;;;;5011760;28;20581;-63
2021/04/04 12:00:01;;;;;;;8.27;5.40;;;10.10;99.90;;;;;;5011517;28;20210;-63
2021/04/04 12:02:29;;;;;;;6.37;5.77;;;9.80;99.90;;;;;;5011591;28;20191;-63
2021/04/04 12:05:09;;;;;;;15.30;6.67;;;9.80;99.90;;;;;;5011516;28;20250;-63
2021/04/04 12:07:46;;;;;;;11.50;5.47;;;10.00;99.90;;;;;;5011687;28;20172;-64
2021/04/04 12:10:17;;;;;;;9.77;4.97;;;10.20;99.90;;;;;;5011413;28;20604;-63
2021/04/04 12:12:44;;;;;;;10.27;5.53;;;10.30;99.90;;;;;;5011386;28;20211;-64
2021/04/04 12:15:12;;;;;;;10.43;4.80;;;10.20;99.90;;;;;;5011374;28;20686;-63
2021/04/04 12:17:38;;;;;;;9.07;5.60;;;10.10;99.90;;;;;;5011592;28;20223;-63
2021/04/04 12:20:06;;;;;;;12.60;5.73;;;10.00;99.90;;;;;;5011140;28;20666;-63
2021/04/04 12:22:37;;;;;;;14.20;5.83;;;10.00;99.90;;;;;;5010708;28;20168;-64
2021/04/04 12:25:05;;;;;;;10.53;5.57;;;10.00;99.90;;;;;;5011009;28;20672;-63
2021/04/04 12:27:31;;;;;;;12.73;5.57;;;10.20;99.90;;;;;;4991066;28;20173;-64
2021/04/04 12:29:57;;;;;;;10.43;5.30;;;10.40;99.90;;;;;;4993868;28;20243;-63
2021/04/04 12:32:31;;;;;;;10.03;5.27;;;10.20;99.90;;;;;;5011327;28;20199;-63
2021/04/04 12:35:03;;;;;;;13.23;5.63;;;10.10;99.90;;;;;;5011084;28;20713;-63
2021/04/04 12:37:32;;;;;;;10.70;5.40;;;10.10;99.90;;;;;;5011422;28;20583;-63
2021/04/04 12:40:01;;;;;;;11.43;6.33;;;10.10;99.90;;;;;;5010953;28;20235;-63
2021/04/04 12:42:33;;;;;;;13.47;6.23;;;10.30;99.90;;;;;;5011257;28;20179;-63
2021/04/04 12:45:03;;;;;;;14.03;5.53;;;10.40;99.90;;;;;;5042706;28;20653;-63
2021/04/04 12:47:28;;;;;;;13.00;6.03;;;10.00;99.90;;;;;;5011336;28;20270;-63
2021/04/04 12:49:59;;;;;;;9.93;5.83;;;10.10;99.90;;;;;;5011290;28;20662;-65
2021/04/04 12:52:45;;;;;;;6.70;4.67;;;10.20;99.90;;;;;;5010762;28;20543;-64
2021/04/04 12:55:24;;;;;;;10.97;5.80;;;10.20;99.90;;;;;;5010808;28;20720;-63
2021/04/04 12:58:00;;;;;;;9.67;6.30;;;10.20;99.90;;;;;;5011295;28;20629;-64
2021/04/04 13:00:30;;;;;;;9.33;4.83;;;10.20;99.90;;;;;;5010943;28;20175;-63
2021/04/04 13:02:58;;;;;;;12.40;4.87;;;10.40;99.90;;;;;;5010464;28;20250;-63
2021/04/04 13:05:25;;;;;;;9.73;5.20;;;10.60;99.90;;;;;;4993197;28;20669;-63
2021/04/04 13:07:52;;;;;;;15.87;5.60;;;10.60;99.90;;;;;;4995358;28;20176;-63
2021/04/04 13:10:18;;;;;;;13.60;5.33;;;10.90;99.90;;;;;;5013536;28;20529;-63
2021/04/04 13:12:45;;;;;;;11.97;4.70;;;11.00;99.90;;;;;;5013497;28;20231;-63
2021/04/04 13:15:23;;;;;;;8.97;5.17;;;10.90;99.90;;;;;;5009587;28;20720;-63
2021/04/04 13:17:49;;;;;;;12.87;5.00;;;11.10;99.90;;;;;;4995052;28;20172;-63
2021/04/04 13:20:16;;;;;;;9.00;4.97;;;11.30;99.90;;;;;;5005147;28;20177;-63